createdAt,value
2022-10-29T04:17:11.788Z,4.55
2022-10-29T04:19:38.297Z,4.13
2022-10-29T04:30:24.904Z,4.03
2022-10-29T04:32:59.574Z,6.18
2022-10-29T04:35:27.794Z,5.40
2022-10-29T04:37:55.467Z,4.88
2022-10-29T04:40:24.317Z,3.95
2022-10-29T04:42:50.943Z,4.90
2022-10-29T04:45:18.173Z,4.90
2022-10-29T04:47:44.691Z,3.85
2022-10-29T04:50:11.166Z,3.95
2022-10-29T04:52:37.572Z,3.78
2022-10-29T04:55:04.365Z,4.30
2022-10-29T04:57:30.756Z,4.00
2022-10-29T04:59:57.193Z,4.05
2022-10-29T05:02:23.612Z,5.00
2022-10-29T05:04:50.085Z,3.65
2022-10-29T05:07:16.572Z,4.72
2022-10-29T05:09:43.012Z,4.53
2022-10-29T05:12:09.417Z,4.47
2022-10-29T05:14:35.873Z,4.75
2022-10-29T05:17:02.317Z,4.50
2022-10-29T05:19:28.807Z,4.50
2022-10-29T05:21:55.224Z,5.40
2022-10-29T05:24:21.637Z,5.30
2022-10-29T05:26:48.036Z,4.13
2022-10-29T05:29:14.505Z,3.20
2022-10-29T05:31:40.907Z,4.70
2022-10-29T05:34:07.345Z,4.35
2022-10-29T05:36:33.779Z,4.65
2022-10-29T05:39:00.314Z,3.75
2022-10-29T05:41:26.737Z,4.20
2022-10-29T05:43:53.173Z,3.85
2022-10-29T05:46:19.595Z,4.50
2022-10-29T05:48:46.021Z,4.43
2022-10-29T05:51:12.518Z,4.43
2022-10-29T05:53:38.945Z,5.78
2022-10-29T05:56:05.943Z,4.53
2022-10-29T05:58:32.404Z,5.38
2022-10-29T06:00:58.943Z,3.55
2022-10-29T06:03:25.503Z,3.90
2022-10-29T06:05:52.015Z,3.60
2022-10-29T06:08:18.796Z,4.38
2022-10-29T06:10:45.382Z,3.97
2022-10-29T06:13:18.019Z,3.70
2022-10-29T06:15:45.485Z,4.43
2022-10-29T06:18:12.753Z,3.38
2022-10-29T06:20:39.349Z,4.28
2022-10-29T06:23:34.593Z,3.90
2022-10-29T06:26:01.781Z,3.65
2022-10-29T06:28:33.742Z,3.95
2022-10-29T06:31:01.417Z,4.07
2022-10-29T06:36:33.972Z,3.60
2022-10-29T06:39:00.438Z,3.70
2022-10-29T06:41:27.307Z,3.38
2022-10-29T06:43:53.806Z,5.75
2022-10-29T06:46:20.267Z,3.67
2022-10-29T06:48:46.743Z,3.97
2022-10-29T06:51:13.319Z,3.80
2022-10-29T06:53:39.815Z,4.45
2022-10-29T06:56:06.462Z,4.80
2022-10-29T06:58:32.935Z,4.30
2022-10-29T07:01:01.640Z,4.20
2022-10-29T07:03:28.083Z,4.20
2022-10-29T07:05:59.272Z,4.93
2022-10-29T07:08:26.872Z,4.68
2022-10-29T07:10:54.233Z,4.88
2022-10-29T07:13:20.681Z,4.40
2022-10-29T07:15:47.202Z,5.28
2022-10-29T07:18:14.064Z,4.72
2022-10-29T07:20:43.670Z,4.38
2022-10-29T07:23:13.954Z,4.60
2022-10-29T07:25:41.222Z,4.95
2022-10-29T07:28:13.843Z,4.32
2022-10-29T07:30:41.243Z,4.78
2022-10-29T07:33:07.802Z,4.63
2022-10-29T07:35:34.875Z,4.03
2022-10-29T07:38:07.071Z,4.53
2022-10-29T07:40:37.617Z,4.55
2022-10-29T07:43:04.147Z,4.30
2022-10-29T07:45:30.607Z,4.47
2022-10-29T07:48:07.200Z,4.93
2022-10-29T07:50:34.266Z,4.85
2022-10-29T07:53:01.851Z,5.03
2022-10-29T07:58:02.211Z,4.55
2022-10-29T08:00:29.869Z,4.80
2022-10-29T08:02:56.943Z,4.80
2022-10-29T08:05:24.961Z,5.43
2022-10-29T08:07:54.928Z,4.30
2022-10-29T08:10:22.921Z,4.97
2022-10-29T08:12:54.064Z,5.80
2022-10-29T08:15:21.213Z,4.95
2022-10-29T08:17:47.725Z,4.30
2022-10-29T08:20:15.622Z,5.45
2022-10-29T08:22:42.342Z,5.10
2022-10-29T08:25:09.213Z,5.40
2022-10-29T08:27:35.860Z,7.65
2022-10-29T08:30:02.358Z,6.25
2022-10-29T08:32:29.734Z,5.53
2022-10-29T08:34:56.310Z,7.10
2022-10-29T08:37:22.775Z,8.85
2022-10-29T08:39:49.309Z,7.13
2022-10-29T08:42:36.289Z,5.53
2022-10-29T08:45:25.916Z,5.53
2022-10-29T08:48:08.418Z,5.25
2022-10-29T08:50:41.095Z,4.43
2022-10-29T08:53:27.618Z,5.30
2022-10-29T08:55:57.152Z,4.82
2022-10-29T08:58:34.061Z,5.50
2022-10-29T09:01:00.597Z,5.90
2022-10-29T09:03:32.344Z,5.68
2022-10-29T09:06:11.179Z,5.47
2022-10-29T09:08:53.417Z,5.40
2022-10-29T09:11:41.807Z,5.70
2022-10-29T09:14:28.293Z,6.28
2022-10-29T09:17:10.283Z,5.50
2022-10-29T09:19:57.862Z,5.55
2022-10-29T09:23:04.045Z,5.97
2022-10-29T09:25:34.984Z,5.22
2022-10-29T09:28:38.900Z,6.15
2022-10-29T09:31:19.778Z,7.05
2022-10-29T09:33:49.539Z,5.78
2022-10-29T09:36:22.246Z,6.60
2022-10-29T09:38:57.672Z,5.43
2022-10-29T09:41:30.328Z,6.80
2022-10-29T09:44:04.756Z,6.68
2022-10-29T09:46:39.255Z,6.32
2022-10-29T09:49:31.031Z,5.88
2022-10-29T09:52:19.159Z,6.18
2022-10-29T09:54:48.105Z,6.90
2022-10-29T09:57:29.307Z,7.35
2022-10-29T10:00:02.078Z,7.07
2022-10-29T10:02:55.227Z,6.18
2022-10-29T10:05:33.511Z,6.07
2022-10-29T10:08:13.676Z,5.78
2022-10-29T10:10:55.612Z,5.95
2022-10-29T10:13:31.681Z,5.47
2022-10-29T10:16:00.824Z,6.38
2022-10-29T10:18:33.359Z,9.93
2022-10-29T10:21:05.890Z,6.55
2022-10-29T10:23:55.067Z,6.35
2022-10-29T10:26:29.568Z,5.88
2022-10-29T10:29:17.454Z,6.70
2022-10-29T10:31:46.702Z,6.18
2022-10-29T10:34:17.853Z,6.35
2022-10-29T10:36:49.985Z,5.60
2022-10-29T10:39:25.162Z,5.38
2022-10-29T10:41:52.293Z,5.68
2022-10-29T10:44:22.096Z,6.03
2022-10-29T10:46:51.640Z,6.05
2022-10-29T10:49:28.124Z,8.75
2022-10-29T10:51:56.642Z,6.47
2022-10-29T10:54:31.339Z,5.22
2022-10-29T10:56:59.576Z,6.07
2022-10-29T10:59:42.720Z,5.57
2022-10-29T11:02:23.622Z,5.05
2022-10-29T11:05:06.876Z,4.55
2022-10-29T11:07:39.697Z,5.70
2022-10-29T11:10:10.431Z,5.18
2022-10-29T11:12:50.548Z,5.50
2022-10-29T11:15:37.156Z,5.22
2022-10-29T11:18:13.194Z,5.10
2022-10-29T11:20:44.747Z,5.68
2022-10-29T11:23:31.453Z,5.15
2022-10-29T11:26:13.453Z,4.72
2022-10-29T11:29:04.916Z,4.65
2022-10-29T11:31:51.604Z,4.78
2022-10-29T11:34:30.210Z,5.63
2022-10-29T11:37:06.344Z,5.32
2022-10-29T11:39:49.557Z,4.80
2022-10-29T11:42:16.059Z,5.43
2022-10-29T11:44:42.636Z,5.53
2022-10-29T11:47:21.153Z,4.35
2022-10-29T11:50:20.033Z,4.80
2022-10-29T11:52:57.386Z,4.22
2022-10-29T11:55:42.677Z,3.92
2022-10-29T11:58:38.042Z,4.90
2022-10-29T12:01:16.788Z,4.18
2022-10-29T12:04:15.933Z,3.50
2022-10-29T12:06:55.977Z,3.95
2022-10-29T12:09:44.738Z,4.18
2022-10-29T12:12:14.166Z,3.85
2022-10-29T12:15:13.097Z,3.85
2022-10-29T12:18:02.607Z,4.10
2022-10-29T12:20:41.779Z,4.68
2022-10-29T12:23:25.328Z,4.13
2022-10-29T12:26:02.979Z,3.95
2022-10-29T12:28:49.765Z,3.90
2022-10-29T12:31:30.340Z,4.70
2022-10-29T12:34:08.248Z,5.03
2022-10-29T12:37:02.439Z,4.40
2022-10-29T12:42:17.841Z,3.97
2022-10-29T12:44:55.418Z,3.80
2022-10-29T12:47:33.588Z,4.47
2022-10-29T12:50:20.285Z,3.92
2022-10-29T12:52:55.871Z,4.22
2022-10-29T12:55:23.457Z,3.58
2022-10-29T12:57:50.000Z,3.53
2022-10-29T13:00:25.595Z,5.10
2022-10-29T13:02:55.767Z,4.57
2022-10-29T13:05:25.679Z,5.40
2022-10-29T13:08:04.239Z,4.50
2022-10-29T13:10:33.743Z,4.95
2022-10-29T13:17:27.886Z,4.80
2022-10-29T13:20:19.438Z,5.28
2022-10-29T13:22:46.872Z,3.88
2022-10-29T13:25:36.286Z,4.30
2022-10-29T13:28:08.740Z,5.05
2022-10-29T13:30:43.508Z,4.43
2022-10-29T13:33:22.087Z,4.85
2022-10-29T13:35:59.561Z,6.18
2022-10-29T13:38:51.893Z,5.38
2022-10-29T13:41:42.157Z,4.30
2022-10-29T13:44:21.819Z,5.32
2022-10-29T13:47:01.593Z,5.07
2022-10-29T13:49:33.857Z,4.25
2022-10-29T13:52:10.391Z,4.50
2022-10-29T13:54:50.664Z,5.18
2022-10-29T13:57:34.406Z,4.90
2022-10-29T14:00:13.056Z,5.35
2022-10-29T14:02:42.584Z,5.00
2022-10-29T14:05:15.174Z,5.43
2022-10-29T14:08:07.474Z,5.00
2022-10-29T14:10:40.181Z,5.78
2022-10-29T14:13:45.865Z,4.83
2022-10-29T14:17:04.390Z,5.18
2022-10-29T14:19:30.886Z,5.45
2022-10-29T14:21:57.666Z,4.22
2022-10-29T14:24:24.287Z,4.47
2022-10-29T14:27:06.522Z,5.00
2022-10-29T14:29:33.023Z,6.78
2022-10-29T14:32:22.826Z,5.35
2022-10-29T14:34:50.815Z,5.63
2022-10-29T14:37:40.558Z,5.68
2022-10-29T14:40:17.667Z,6.07
2022-10-29T14:42:48.272Z,6.50
2022-10-29T14:45:30.335Z,6.95
2022-10-29T14:48:11.382Z,5.95
2022-10-29T14:50:37.977Z,7.07
2022-10-29T14:53:17.643Z,6.20
2022-10-29T14:55:48.333Z,5.90
2022-10-29T14:58:21.375Z,6.22
2022-10-29T15:01:08.296Z,5.95
2022-10-29T15:03:35.622Z,5.45
2022-10-29T15:06:10.591Z,6.47
2022-10-29T15:08:58.365Z,5.78
2022-10-29T15:11:35.615Z,12.48
2022-10-29T15:14:04.266Z,30.73
2022-10-29T15:16:31.848Z,18.75
2022-10-29T15:19:00.086Z,8.40
2022-10-29T15:21:32.990Z,6.57
2022-10-29T15:24:04.865Z,6.40
2022-10-29T15:26:31.457Z,5.78
2022-10-29T15:28:58.305Z,6.57
2022-10-29T15:31:33.028Z,6.53
2022-10-29T15:34:15.028Z,7.22
2022-10-29T15:36:53.385Z,7.45
2022-10-29T15:39:29.314Z,6.57
2022-10-29T15:41:59.261Z,5.88
2022-10-29T15:45:20.875Z,6.30
2022-10-29T15:47:50.609Z,5.93
2022-10-29T15:50:23.804Z,7.90
2022-10-29T15:52:56.345Z,6.60
2022-10-29T15:55:31.787Z,10.10
2022-10-29T15:58:15.078Z,7.57
2022-10-29T16:00:42.406Z,9.52
2022-10-29T16:03:23.369Z,7.25
2022-10-29T16:05:53.675Z,6.78
2022-10-29T16:08:29.980Z,6.20
2022-10-29T16:11:07.780Z,16.67
2022-10-29T16:13:35.355Z,7.38
2022-10-29T16:16:01.901Z,8.27
2022-10-29T16:18:28.363Z,9.00
2022-10-29T16:21:00.550Z,11.23
2022-10-29T16:23:27.463Z,9.88
2022-10-29T16:25:53.957Z,11.40
2022-10-29T16:28:20.389Z,8.88
2022-10-29T16:30:52.735Z,10.73
2022-10-29T16:33:20.372Z,12.48
2022-10-29T16:35:46.910Z,11.68
2022-10-29T16:38:13.429Z,10.55
2022-10-29T16:40:39.890Z,12.30
2022-10-29T16:43:06.357Z,10.55
2022-10-29T16:45:32.798Z,8.80
2022-10-29T16:48:07.366Z,11.48
2022-10-29T16:50:35.168Z,9.65
2022-10-29T16:53:14.036Z,10.57
2022-10-29T16:55:41.677Z,9.18
2022-10-29T16:58:16.123Z,15.10
2022-10-29T17:00:42.808Z,11.30
2022-10-29T17:03:12.366Z,10.57
2022-10-29T17:05:41.086Z,8.55
2022-10-29T17:08:12.606Z,8.13
2022-10-29T17:10:39.126Z,8.70
2022-10-29T17:13:07.192Z,8.00
2022-10-29T17:15:33.695Z,7.60
2022-10-29T17:18:00.461Z,7.28
2022-10-29T17:20:27.223Z,7.90
2022-10-29T17:22:54.974Z,7.93
2022-10-29T17:25:21.434Z,7.30
2022-10-29T17:27:47.898Z,7.85
2022-10-29T17:30:14.349Z,6.72
2022-10-29T17:32:40.821Z,6.95
2022-10-29T17:35:07.417Z,8.48
2022-10-29T17:37:33.878Z,6.45
2022-10-29T17:40:03.277Z,6.95
2022-10-29T17:42:33.542Z,7.30
2022-10-29T17:44:59.992Z,6.45
2022-10-29T17:47:26.463Z,6.93
2022-10-29T17:49:52.941Z,7.85
2022-10-29T17:52:19.440Z,9.55
2022-10-29T17:54:45.965Z,9.77
2022-10-29T17:57:12.411Z,11.27
2022-10-29T17:59:38.816Z,9.30
2022-10-29T18:02:05.532Z,8.90
2022-10-29T18:04:32.105Z,8.55
2022-10-29T18:06:58.785Z,8.63
2022-10-29T18:09:25.404Z,8.68
2022-10-29T18:11:51.919Z,9.77
2022-10-29T18:14:18.467Z,9.90
2022-10-29T18:16:45.793Z,9.65
2022-10-29T18:19:12.369Z,10.07
2022-10-29T18:21:38.779Z,9.55
2022-10-29T18:24:05.736Z,8.18
2022-10-29T18:26:34.720Z,7.22
2022-10-29T18:29:04.802Z,7.88
2022-10-29T18:31:32.049Z,7.65
2022-10-29T18:34:00.355Z,8.80
2022-10-29T18:36:27.406Z,8.68
2022-10-29T18:38:56.098Z,8.10
2022-10-29T18:41:23.390Z,8.20
2022-10-29T18:43:50.429Z,7.65
2022-10-29T18:46:18.062Z,7.43
2022-10-29T18:48:46.748Z,6.82
2022-10-29T18:51:18.962Z,6.75
2022-10-29T18:53:45.724Z,7.68
2022-10-29T18:56:17.809Z,7.35
2022-10-29T18:58:44.675Z,8.20
2022-10-29T19:01:17.890Z,7.00
2022-10-29T19:03:50.100Z,8.40
2022-10-29T19:06:16.840Z,8.52
2022-10-29T19:08:44.212Z,7.15
2022-10-29T19:11:13.383Z,7.22
2022-10-29T19:13:40.369Z,7.80
2022-10-29T19:16:09.574Z,7.68
2022-10-29T19:18:38.030Z,10.50
2022-10-29T19:21:06.919Z,10.18
2022-10-29T19:23:33.991Z,6.95
2022-10-29T19:26:08.958Z,5.85
2022-10-29T19:28:36.463Z,6.13
2022-10-29T19:31:08.562Z,6.45
2022-10-29T19:33:35.365Z,6.75
2022-10-29T19:36:02.185Z,5.72
2022-10-29T19:38:28.830Z,7.75
2022-10-29T19:40:56.946Z,5.97
2022-10-29T19:43:24.496Z,7.28
2022-10-29T19:45:51.335Z,7.82
2022-10-29T19:48:18.984Z,6.13
2022-10-29T19:50:46.323Z,13.20
2022-10-29T19:53:12.807Z,7.35
2022-10-29T19:55:40.405Z,5.72
2022-10-29T19:58:07.387Z,6.38
2022-10-29T20:00:34.036Z,6.10
2022-10-29T20:03:00.852Z,6.63
2022-10-29T20:05:27.380Z,6.85
2022-10-29T20:07:53.964Z,7.30
2022-10-29T20:10:20.492Z,7.35
2022-10-29T20:12:46.921Z,8.07
2022-10-29T20:15:13.402Z,6.65
2022-10-29T20:17:39.873Z,7.20
2022-10-29T20:20:06.984Z,8.35
2022-10-29T20:22:33.459Z,7.93
2022-10-29T20:24:59.933Z,8.50
2022-10-29T20:27:26.349Z,7.65
2022-10-29T20:29:52.875Z,6.65
2022-10-29T20:32:19.302Z,5.90
2022-10-29T20:34:45.723Z,6.65
2022-10-29T20:37:12.145Z,6.45
2022-10-29T20:39:38.546Z,5.75
2022-10-29T20:42:05.055Z,6.07
2022-10-29T20:44:31.478Z,5.75
2022-10-29T20:46:57.973Z,6.20
2022-10-29T20:49:24.503Z,6.93
2022-10-29T20:51:50.937Z,6.03
2022-10-29T20:54:17.439Z,5.72
2022-10-29T20:56:43.914Z,6.43
2022-10-29T20:59:10.400Z,7.50
2022-10-29T21:01:36.937Z,6.07
2022-10-29T21:04:03.533Z,5.78
2022-10-29T21:06:30.047Z,5.03
2022-10-29T21:08:56.539Z,6.22
2022-10-29T21:11:23.927Z,5.22
2022-10-29T21:13:50.529Z,5.85
2022-10-29T21:16:19.577Z,6.63
2022-10-29T21:18:48.196Z,5.88
2022-10-29T21:21:15.621Z,5.45
2022-10-29T21:23:42.122Z,5.63
2022-10-29T21:26:13.982Z,10.40
2022-10-29T21:28:40.444Z,8.13
2022-10-29T21:31:07.079Z,6.32
2022-10-29T21:33:33.704Z,5.13
2022-10-29T21:36:00.682Z,5.35
2022-10-29T21:38:28.268Z,5.53
2022-10-29T21:40:55.329Z,5.28
2022-10-29T21:43:22.053Z,5.78
2022-10-29T21:45:50.556Z,4.88
2022-10-29T21:48:17.408Z,5.10
2022-10-29T21:50:44.112Z,6.15
2022-10-29T21:53:10.816Z,7.10
2022-10-29T21:55:37.286Z,6.88
2022-10-29T21:58:03.938Z,7.35
